Time;durP1;ratioP1;P1;durP2;ratioP2;P2;SDS_P1;SDS_P2;PMS_P1;PMS_P2;Temp;Humidity;BMP_temperature;BMP_pressure;BME280_temperature;BME280_humidity;BME280_pressure;Samples;Min_cycle;Max_cycle;Signal;HPM_P1;HPM_P2
2023/11/18 00:00:00;;;;;;;10.70;7.80;;;;;;;5.69;100.00;100919.90;106092;1254;64004;-77
2023/11/18 00:02:27;;;;;;;9.80;8.00;;;;;;;5.68;100.00;100918.70;106071;1251;72473;-77
2023/11/18 00:04:54;;;;;;;13.00;9.50;;;;;;;5.68;100.00;100919.24;106023;1250;60545;-77
2023/11/18 00:07:22;;;;;;;10.90;7.20;;;;;;;5.66;100.00;100917.23;106038;1250;60535;-77
2023/11/18 00:09:49;;;;;;;13.60;7.90;;;;;;;5.64;100.00;100916.44;106015;1249;73749;-77
2023/11/18 00:12:16;;;;;;;11.10;7.70;;;;;;;5.64;100.00;100913.66;106040;1253;64202;-76
2023/11/18 00:14:45;;;;;;;14.70;9.70;;;;;;;5.65;100.00;100913.46;106022;1251;72511;-76
2023/11/18 00:17:12;;;;;;;13.00;7.40;;;;;;;5.65;100.00;100911.38;105988;1249;60542;-77
2023/11/18 00:19:39;;;;;;;9.90;8.20;;;;;;;5.62;100.00;100912.69;106037;1251;60539;-76
2023/11/18 00:22:06;;;;;;;10.40;8.70;;;;;;;5.62;100.00;100911.64;106016;1254;73720;-76
2023/11/18 00:24:34;;;;;;;13.20;9.60;;;;;;;5.61;100.00;100906.83;106043;1251;63875;-76
2023/11/18 00:27:07;;;;;;;13.20;10.00;;;;;;;5.59;100.00;100902.54;106022;1251;72667;-76
2023/11/18 00:29:34;;;;;;;14.90;10.30;;;;;;;5.56;100.00;100900.77;105949;1255;60988;-77
2023/11/18 00:32:02;;;;;;;12.90;10.00;;;;;;;5.53;100.00;100902.74;105965;1250;60930;-76
2023/11/18 00:34:30;;;;;;;13.50;9.90;;;;;;;5.52;100.00;100903.14;106059;1251;73715;-77
2023/11/18 00:37:00;;;;;;;14.60;10.10;;;;;;;5.52;100.00;100905.59;106117;1253;63897;-77
2023/11/18 00:39:27;;;;;;;12.60;9.80;;;;;;;5.54;100.00;100906.91;106060;1253;72642;-77
2023/11/18 00:41:55;;;;;;;16.10;10.80;;;;;;;5.54;100.00;100904.98;105844;1251;60564;-79
2023/11/18 00:44:23;;;;;;;16.00;10.80;;;;;;;5.56;100.00;100907.00;106028;1251;60398;-77
2023/11/18 00:46:50;;;;;;;13.90;10.20;;;;;;;5.56;100.00;100899.35;106065;1249;72357;-76
2023/11/18 00:49:17;;;;;;;12.10;9.50;;;;;;;5.54;100.00;100897.33;106082;1253;63807;-76
2023/11/18 00:51:44;;;;;;;14.50;9.20;;;;;;;5.51;100.00;100895.36;105838;1255;72349;-77
2023/11/18 00:54:12;;;;;;;13.40;10.80;;;;;;;5.50;100.00;100893.83;105921;1251;61106;-77
2023/11/18 00:56:39;;;;;;;12.90;9.50;;;;;;;5.53;100.00;100891.48;105988;1253;60930;-75
2023/11/18 00:59:06;;;;;;;15.70;10.70;;;;;;;5.59;100.00;100892.84;105991;1251;73910;-75
2023/11/18 01:01:33;;;;;;;14.10;11.00;;;;;;;5.65;100.00;100892.65;105963;1256;61584;-75
2023/11/18 01:04:02;;;;;;;13.40;10.30;;;;;;;5.67;100.00;100894.83;106083;1253;71594;-77
2023/11/18 01:06:31;;;;;;;17.20;11.80;;;;;;;5.66;100.00;100888.27;106092;1253;62458;-76
2023/11/18 01:08:58;;;;;;;17.40;11.70;;;;;;;5.67;100.00;100884.77;106060;1254;60434;-76
2023/11/18 01:11:26;;;;;;;16.10;12.00;;;;;;;5.66;100.00;100881.16;106041;1253;73575;-77
2023/11/18 01:13:56;;;;;;;16.80;12.10;;;;;;;5.62;100.00;100876.25;105913;1255;63753;-77
2023/11/18 01:16:23;;;;;;;18.10;12.20;;;;;;;5.59;100.00;100876.00;106092;1251;72756;-75
2023/11/18 01:18:50;;;;;;;16.70;12.60;;;;;;;5.57;100.00;100872.63;106077;1254;61222;-75
2023/11/18 01:21:17;;;;;;;17.50;12.80;;;;;;;5.54;100.00;100875.68;106097;1253;60431;-77
2023/11/18 01:23:44;;;;;;;17.90;12.60;;;;;;;5.50;100.00;100875.44;106066;1253;74280;-78
2023/11/18 01:26:15;;;;;;;15.50;11.30;;;;;;;5.50;100.00;100874.78;106032;1253;63794;-75
2023/11/18 01:28:43;;;;;;;13.40;10.90;;;;;;;5.49;100.00;100874.83;106067;1250;71432;-75
2023/11/18 01:31:10;;;;;;;13.60;10.90;;;;;;;5.47;100.00;100871.23;106162;1253;60307;-76
2023/11/18 01:33:40;;;;;;;12.70;10.10;;;;;;;5.47;100.00;100875.23;106094;1253;60293;-76
2023/11/18 01:36:09;;;;;;;12.70;10.30;;;;;;;5.48;100.00;100873.48;105939;1249;72625;-76
2023/11/18 01:38:39;;;;;;;10.30;9.10;;;;;;;5.47;100.00;100872.79;106031;1253;62969;-76
2023/11/18 01:41:06;;;;;;;10.40;9.20;;;;;;;5.49;100.00;100871.70;105969;1251;72021;-76
2023/11/18 01:43:33;;;;;;;13.40;9.60;;;;;;;5.48;100.00;100871.73;105907;1256;60536;-76
2023/11/18 01:46:05;;;;;;;9.90;8.90;;;;;;;5.47;100.00;100869.86;105977;1254;60449;-75
2023/11/18 01:48:34;;;;;;;9.80;8.80;;;;;;;5.47;100.00;100870.20;106158;1251;73626;-76
2023/11/18 01:51:02;;;;;;;10.10;8.40;;;;;;;5.50;100.00;100875.15;106039;1256;62677;-78
2023/11/18 01:53:29;;;;;;;8.70;7.40;;;;;;;5.50;100.00;100876.19;106041;1252;72721;-78
2023/11/18 01:55:57;;;;;;;7.90;6.70;;;;;;;5.50;100.00;100873.59;106055;1251;60423;-75
2023/11/18 01:58:25;;;;;;;5.10;4.40;;;;;;;5.48;100.00;100874.34;105847;1252;60522;-76
2023/11/18 02:00:52;;;;;;;5.70;4.80;;;;;;;5.41;100.00;100878.38;106022;1250;75086;-75
2023/11/18 02:03:20;;;;;;;7.00;5.10;;;;;;;5.37;100.00;100879.55;106047;1251;62455;-76
2023/11/18 02:05:47;;;;;;;5.60;5.10;;;;;;;5.35;100.00;100875.81;106024;1257;72644;-75
2023/11/18 02:08:14;;;;;;;7.40;5.50;;;;;;;5.34;100.00;100876.34;105940;1257;61202;-75
2023/11/18 02:10:53;;;;;;;6.30;5.40;;;;;;;5.31;100.00;100876.30;105898;1249;60469;-76
2023/11/18 02:13:27;;;;;;;6.60;5.20;;;;;;;5.25;100.00;100869.73;106067;1253;73751;-75
2023/11/18 02:15:57;;;;;;;;;;;;;;;5.24;100.00;100869.26;105994;1256;62716;-74
2023/11/18 02:18:30;;;;;;;6.90;5.20;;;;;;;5.20;100.00;100867.48;105881;1251;71572;-75
2023/11/18 02:20:59;;;;;;;6.50;5.00;;;;;;;5.18;100.00;100870.69;105900;1251;61058;-76
2023/11/18 02:23:27;;;;;;;8.30;5.60;;;;;;;5.15;100.00;100876.66;105879;1256;60516;-76
2023/11/18 02:25:57;;;;;;;7.00;4.90;;;;;;;5.14;100.00;100880.85;106018;1253;73777;-75
2023/11/18 02:28:24;;;;;;;6.20;5.40;;;;;;;5.12;100.00;100882.67;105824;1251;62540;-76
2023/11/18 02:30:59;;;;;;;7.60;5.60;;;;;;;5.08;100.00;100883.82;106459;1251;72639;-78
2023/11/18 02:33:34;;;;;;;7.60;5.20;;;;;;;5.06;100.00;100884.23;106111;1251;60568;-74
2023/11/18 02:36:35;;;;;;;8.20;5.80;;;;;;;5.03;100.00;100891.60;106476;1250;60413;-74
2023/11/18 02:39:15;;;;;;;8.70;6.20;;;;;;;5.04;100.00;100893.65;106258;1254;74075;-75
2023/11/18 02:41:45;;;;;;;7.30;6.10;;;;;;;5.06;100.00;100901.92;106240;1253;62858;-76
2023/11/18 02:44:17;;;;;;;7.40;5.70;;;;;;;5.09;100.00;100904.05;105976;1252;72032;-77
2023/11/18 02:46:44;;;;;;;8.30;6.20;;;;;;;5.11;100.00;100902.27;105948;1252;61088;-77
2023/11/18 02:49:11;;;;;;;8.00;6.10;;;;;;;5.11;100.00;100894.98;106214;1254;60427;-76
2023/11/18 02:51:39;;;;;;;6.90;5.90;;;;;;;5.12;100.00;100890.80;106030;1254;72269;-78
2023/11/18 02:54:10;;;;;;;7.60;6.30;;;;;;;5.12;100.00;100890.45;106065;1253;63620;-77
2023/11/18 02:56:37;;;;;;;7.30;5.30;;;;;;;5.07;100.00;100892.34;106140;1256;72378;-76
2023/11/18 02:59:05;;;;;;;6.70;5.50;;;;;;;5.04;100.00;100893.32;106165;1253;61029;-79
2023/11/18 03:01:35;;;;;;;7.90;6.70;;;;;;;5.01;100.00;100897.57;105872;1252;60412;-78
2023/11/18 03:04:02;;;;;;;8.10;6.70;;;;;;;4.99;100.00;100891.40;106111;1254;72634;-79
2023/11/18 03:06:30;;;;;;;7.90;6.40;;;;;;;4.99;100.00;100884.27;106106;1254;63953;-76
2023/11/18 03:08:57;;;;;;;7.50;6.10;;;;;;;4.99;100.00;100878.72;105890;1252;72748;-76
2023/11/18 03:11:24;;;;;;;8.00;6.00;;;;;;;4.98;100.00;100873.92;105881;1250;61620;-76
2023/11/18 03:13:51;;;;;;;16.90;6.60;;;;;;;4.95;100.00;100874.70;105872;1250;60405;-77
2023/11/18 03:16:19;;;;;;;7.60;6.20;;;;;;;4.95;100.00;100875.94;106053;1253;72336;-77
2023/11/18 03:18:45;;;;;;;7.20;6.50;;;;;;;4.92;100.00;100877.23;106034;1254;63703;-76
2023/11/18 03:21:13;;;;;;;9.00;6.40;;;;;;;4.89;100.00;100872.13;106102;1253;72555;-76
2023/11/18 03:23:42;;;;;;;7.90;6.20;;;;;;;4.88;100.00;100877.20;106058;1254;61266;-77
2023/11/18 03:26:10;;;;;;;8.30;6.00;;;;;;;4.86;100.00;100880.02;106107;1251;60539;-77
2023/11/18 03:28:37;;;;;;;7.70;6.40;;;;;;;4.85;100.00;100876.41;106041;1253;73864;-77
2023/11/18 03:31:05;;;;;;;8.70;6.60;;;;;;;4.83;100.00;100873.39;106066;1251;63740;-77
2023/11/18 03:33:32;;;;;;;7.80;6.50;;;;;;;4.83;100.00;100869.59;105948;1255;71421;-76
2023/11/18 03:35:58;;;;;;;8.40;6.00;;;;;;;4.85;100.00;100864.80;105846;1254;61028;-77
2023/11/18 03:38:27;;;;;;;9.60;6.20;;;;;;;4.89;100.00;100868.52;106088;1250;60434;-80
2023/11/18 03:40:55;;;;;;;9.30;6.90;;;;;;;4.90;100.00;100871.91;105968;1250;73840;-78
2023/11/18 03:43:23;;;;;;;8.00;6.50;;;;;;;4.91;100.00;100881.41;106032;1254;62363;-77
2023/11/18 03:45:52;;;;;;;8.00;6.20;;;;;;;4.90;100.00;100881.45;106064;1253;72407;-77
2023/11/18 03:48:19;;;;;;;16.10;6.60;;;;;;;4.91;100.00;100886.45;106048;1250;61118;-77
2023/11/18 03:50:46;;;;;;;9.30;7.20;;;;;;;4.93;100.00;100881.88;106068;1249;60536;-77
2023/11/18 03:53:14;;;;;;;9.30;6.80;;;;;;;4.94;100.00;100878.73;106112;1251;74395;-76
2023/11/18 03:55:40;;;;;;;10.90;8.30;;;;;;;4.96;100.00;100881.45;105975;1256;63888;-76
2023/11/18 03:58:08;;;;;;;10.10;7.50;;;;;;;4.98;100.00;100879.65;106011;1254;72543;-76
2023/11/18 04:00:35;;;;;;;12.30;9.20;;;;;;;5.00;100.00;100880.43;106108;1251;61095;-76
2023/11/18 04:03:05;;;;;;;11.60;7.20;;;;;;;5.03;100.00;100881.22;106011;1251;60703;-77
2023/11/18 04:05:32;;;;;;;12.10;8.10;;;;;;;5.06;100.00;100884.61;106003;1254;72643;-77
2023/11/18 04:08:04;;;;;;;21.30;9.00;;;;;;;5.07;100.00;100882.66;105955;1257;62304;-77
2023/11/18 04:10:31;;;;;;;11.00;7.50;;;;;;;5.08;100.00;100878.62;105893;1251;72808;-76
2023/11/18 04:12:58;;;;;;;11.50;8.60;;;;;;;5.09;100.00;100875.98;106039;1253;60924;-78
2023/11/18 04:15:26;;;;;;;10.60;9.00;;;;;;;5.10;100.00;100876.83;105966;1252;60552;-77
2023/11/18 04:17:53;;;;;;;14.80;9.50;;;;;;;5.10;100.00;100878.92;105956;1251;72419;-79
2023/11/18 04:20:20;;;;;;;14.10;9.80;;;;;;;5.11;100.00;100881.48;106105;1251;62334;-79
2023/11/18 04:22:47;;;;;;;13.40;9.30;;;;;;;5.12;100.00;100892.36;106050;1253;72544;-76
2023/11/18 04:25:15;;;;;;;14.50;8.60;;;;;;;5.10;100.00;100892.41;106037;1254;60984;-77
2023/11/18 04:27:42;;;;;;;11.00;8.10;;;;;;;5.07;100.00;100895.63;106122;1251;60449;-80
2023/11/18 04:30:13;;;;;;;13.30;7.60;;;;;;;5.02;100.00;100898.05;106050;1253;73887;-79
2023/11/18 04:32:42;;;;;;;11.20;7.10;;;;;;;5.00;100.00;100894.30;106006;1253;62988;-78
2023/11/18 04:35:11;;;;;;;11.10;7.60;;;;;;;4.99;100.00;100897.45;105991;1252;72658;-77
2023/11/18 04:37:42;;;;;;;12.20;7.10;;;;;;;4.97;100.00;100907.73;106125;1254;61178;-78
2023/11/18 04:40:10;;;;;;;9.40;6.80;;;;;;;4.96;100.00;100912.09;106030;1254;60332;-75
2023/11/18 04:42:40;;;;;;;10.00;7.20;;;;;;;4.93;100.00;100911.86;105999;1257;73783;-77
2023/11/18 04:45:09;;;;;;;7.60;6.40;;;;;;;4.90;100.00;100915.78;106110;1254;63698;-78
2023/11/18 04:47:38;;;;;;;10.00;7.40;;;;;;;4.88;100.00;100926.40;106058;1253;72244;-78
2023/11/18 04:50:05;;;;;;;9.90;7.10;;;;;;;4.84;100.00;100917.02;106023;1254;60450;-76
2023/11/18 04:52:34;;;;;;;9.90;7.30;;;;;;;4.80;100.00;100912.25;106092;1251;60450;-77
2023/11/18 04:55:02;;;;;;;12.30;9.00;;;;;;;4.79;100.00;100912.98;106046;1251;72339;-77
2023/11/18 04:57:29;;;;;;;13.40;9.00;;;;;;;4.81;100.00;100916.04;106067;1251;63850;-77
2023/11/18 04:59:56;;;;;;;14.60;8.70;;;;;;;4.84;100.00;100919.77;106061;1251;72817;-75
2023/11/18 05:02:23;;;;;;;15.20;10.20;;;;;;;4.86;100.00;100920.74;106198;1253;61011;-77
2023/11/18 05:04:51;;;;;;;13.80;8.90;;;;;;;4.88;100.00;100925.87;106273;1254;61613;-75
2023/11/18 05:07:17;;;;;;;13.40;9.20;;;;;;;4.89;100.00;100922.90;106041;1251;72436;-74
2023/11/18 05:09:44;;;;;;;15.10;9.90;;;;;;;4.86;100.00;100920.23;106159;1251;62820;-79
2023/11/18 05:12:11;;;;;;;14.60;9.50;;;;;;;4.83;100.00;100919.30;106247;1250;71238;-78
2023/11/18 05:14:39;;;;;;;15.00;9.70;;;;;;;4.81;100.00;100926.61;106126;1251;61045;-77
2023/11/18 05:17:06;;;;;;;11.20;7.80;;;;;;;4.77;100.00;100929.50;106325;1252;60530;-80
2023/11/18 05:19:35;;;;;;;11.60;8.80;;;;;;;4.72;100.00;100930.52;106095;1253;73911;-75
2023/11/18 05:22:03;;;;;;;10.10;7.70;;;;;;;4.68;100.00;100932.05;106057;1253;63967;-78
2023/11/18 05:24:30;;;;;;;13.40;9.90;;;;;;;4.65;100.00;100934.73;106186;1251;73263;-76
2023/11/18 05:29:54;;;;;;;12.00;8.50;;;;;;;4.62;100.00;100942.42;102663;1295;600698;-77
2023/11/18 05:32:25;;;;;;;12.20;9.50;;;;;;;4.60;100.00;100943.17;104913;1271;61649;-77
2023/11/18 05:34:57;;;;;;;13.40;9.10;;;;;;;4.60;100.00;100947.85;104860;1270;59363;-77
2023/11/18 05:37:27;;;;;;;15.70;10.80;;;;;;;4.62;100.00;100955.23;105493;1258;72278;-76
2023/11/18 05:40:06;;;;;;;14.20;9.80;;;;;;;4.66;100.00;100957.89;105436;1262;62867;-77
2023/11/18 05:42:37;;;;;;;14.40;9.90;;;;;;;4.70;100.00;100960.90;105291;1254;211348;-75
2023/11/18 05:45:09;;;;;;;12.50;10.10;;;;;;;4.72;100.00;100956.01;105796;1256;59586;-76
2023/11/18 05:47:37;;;;;;;13.30;9.70;;;;;;;4.70;100.00;100963.83;105614;1260;59641;-74
2023/11/18 05:50:05;;;;;;;12.10;9.90;;;;;;;4.70;100.00;100970.27;105814;1250;69996;-76
2023/11/18 05:52:34;;;;;;;12.40;9.60;;;;;;;4.72;100.00;100974.88;105792;1256;64393;-76
2023/11/18 05:55:02;;;;;;;11.40;9.00;;;;;;;4.75;100.00;100982.40;105838;1254;75221;-76
2023/11/18 05:57:29;;;;;;;13.50;9.90;;;;;;;4.79;100.00;100990.77;105790;1256;60952;-77
2023/11/18 05:59:58;;;;;;;13.30;9.60;;;;;;;4.80;100.00;100995.75;105930;1256;59625;-76
2023/11/18 06:02:26;;;;;;;11.90;10.00;;;;;;;4.80;100.00;100995.59;105865;1256;75381;-77
2023/11/18 06:04:54;;;;;;;11.30;9.30;;;;;;;4.78;100.00;100993.38;105754;1257;61682;-78
2023/11/18 06:07:22;;;;;;;12.80;8.70;;;;;;;4.75;100.00;100991.22;105711;1254;71205;-79
2023/11/18 06:09:50;;;;;;;13.40;9.30;;;;;;;4.72;100.00;100983.53;105763;1256;60900;-78
2023/11/18 06:12:18;;;;;;;17.60;9.00;;;;;;;4.73;100.00;100976.93;105890;1256;60013;-76
2023/11/18 06:14:46;;;;;;;11.80;8.20;;;;;;;4.75;100.00;100967.14;105809;1256;73658;-76
2023/11/18 06:17:14;;;;;;;10.10;8.20;;;;;;;4.74;100.00;100961.45;105851;1256;63810;-75
2023/11/18 06:19:42;;;;;;;12.30;9.00;;;;;;;4.75;100.00;100963.15;105695;1251;72941;-78
2023/11/18 06:22:10;;;;;;;11.30;8.30;;;;;;;4.77;100.00;100969.02;105718;1254;59823;-78
2023/11/18 06:24:39;;;;;;;11.40;8.00;;;;;;;4.75;100.00;100976.33;105917;1255;60020;-79
2023/11/18 06:27:08;;;;;;;10.90;8.60;;;;;;;4.73;100.00;100980.73;105696;1257;73029;-76
2023/11/18 06:29:36;;;;;;;13.70;8.40;;;;;;;4.74;100.00;100984.48;105816;1256;62459;-76
2023/11/18 06:32:05;;;;;;;9.30;6.90;;;;;;;4.77;100.00;100980.42;105815;1257;72321;-77
2023/11/18 06:34:33;;;;;;;8.50;7.50;;;;;;;4.83;100.00;100984.39;105881;1254;59662;-75
2023/11/18 06:37:01;;;;;;;11.50;7.40;;;;;;;4.89;100.00;100979.00;105804;1251;60125;-79
2023/11/18 06:39:29;;;;;;;8.30;7.00;;;;;;;4.94;100.00;100986.33;105791;1257;73877;-76
2023/11/18 06:41:58;;;;;;;8.30;6.30;;;;;;;4.97;100.00;100997.16;105834;1251;63820;-77
2023/11/18 06:44:26;;;;;;;7.60;6.40;;;;;;;4.96;100.00;100999.08;105710;1257;71575;-77
2023/11/18 06:59:48;;;;;;;13.60;9.90;;;;;;;4.78;100.00;101018.51;102748;1294;600284;-78
2023/11/18 07:02:16;;;;;;;13.40;9.80;;;;;;;4.67;100.00;101014.16;105322;1258;60983;-76
2023/11/18 07:04:43;;;;;;;12.00;9.50;;;;;;;4.62;100.00;101013.80;105222;1260;59993;-78
2023/11/18 07:07:12;;;;;;;15.20;10.30;;;;;;;4.60;100.00;101014.85;105529;1262;73179;-79
2023/11/18 07:09:40;;;;;;;12.20;9.90;;;;;;;4.63;100.00;101016.00;105282;1261;63816;-78
2023/11/18 07:12:08;;;;;;;13.80;10.40;;;;;;;4.67;100.00;101021.59;105215;1261;71431;-80
2023/11/18 07:14:35;;;;;;;14.10;10.60;;;;;;;4.67;100.00;101019.16;105301;1262;290837;-78
2023/11/18 07:17:06;;;;;;;13.80;10.90;;;;;;;4.68;100.00;101014.11;105327;1262;59672;-78
2023/11/18 07:19:33;;;;;;;11.30;8.60;;;;;;;4.66;100.00;101012.45;105337;1257;72204;-77
2023/11/18 07:22:06;;;;;;;11.50;9.80;;;;;;;4.62;100.00;101015.15;105436;1256;64007;-77
2023/11/18 07:24:37;;;;;;;11.50;9.30;;;;;;;4.57;100.00;101010.80;105545;1258;71311;-78
2023/11/18 07:27:05;;;;;;;12.20;8.70;;;;;;;4.55;100.00;101011.56;105329;1257;61000;-78
2023/11/18 07:29:33;;;;;;;13.10;10.10;;;;;;;4.51;100.00;101011.48;105656;1259;59630;-79
2023/11/18 07:32:05;;;;;;;11.60;9.50;;;;;;;4.48;100.00;101010.52;105625;1257;73589;-78
2023/11/18 07:34:33;;;;;;;14.00;10.90;;;;;;;4.46;100.00;101009.93;105537;1257;62364;-77
2023/11/18 07:37:01;;;;;;;19.60;11.70;;;;;;;4.46;100.00;101016.99;105344;1258;71667;-80
2023/11/18 07:39:43;;;;;;;15.50;11.70;;;;;;;4.47;100.00;101016.27;105425;1262;59761;-79
2023/11/18 07:42:13;;;;;;;14.10;10.90;;;;;;;4.48;100.00;101020.77;105482;1262;60334;-79
2023/11/18 07:44:41;;;;;;;19.40;13.00;;;;;;;4.49;100.00;101016.05;105524;1256;73070;-77
2023/11/18 07:47:11;;;;;;;16.70;10.60;;;;;;;4.48;100.00;101008.64;105384;1261;64172;-78
2023/11/18 07:49:39;;;;;;;17.90;10.50;;;;;;;4.49;100.00;101011.56;105460;1258;72934;-79
2023/11/18 07:52:06;;;;;;;17.10;11.60;;;;;;;4.48;100.00;101007.94;105587;1260;60589;-77
2023/11/18 07:54:34;;;;;;;14.80;10.70;;;;;;;4.48;100.00;101007.27;105308;1257;60897;-78
2023/11/18 07:57:10;;;;;;;17.60;11.50;;;;;;;4.51;100.00;101003.87;105772;1251;73197;-78
2023/11/18 07:59:48;;;;;;;18.20;13.10;;;;;;;4.59;100.00;100998.29;105843;1254;62862;-78
2023/11/18 08:02:16;;;;;;;21.00;12.60;;;;;;;4.69;100.00;100996.25;105784;1259;72423;-80
2023/11/18 08:04:52;;;;;;;16.60;10.70;;;;;;;4.76;100.00;100988.24;105799;1255;59800;-80
2023/11/18 08:07:19;;;;;;;15.60;11.20;;;;;;;4.83;100.00;100988.91;105900;1254;59634;-80
2023/11/18 08:09:49;;;;;;;21.40;12.90;;;;;;;4.86;100.00;100991.44;105722;1254;72196;-80
2023/11/18 08:12:17;;;;;;;17.10;11.00;;;;;;;4.90;100.00;100987.64;105800;1254;62425;-78
2023/11/18 08:14:44;;;;;;;14.60;10.40;;;;;;;4.96;100.00;100990.08;105760;1254;73200;-77
2023/11/18 08:17:13;;;;;;;14.40;9.70;;;;;;;5.02;100.00;100993.02;105575;1254;60922;-78
2023/11/18 08:19:40;;;;;;;12.90;9.60;;;;;;;5.02;100.00;100990.90;105790;1254;60056;-78
2023/11/18 08:22:09;;;;;;;12.80;9.10;;;;;;;5.04;100.00;100986.02;105772;1260;73037;-77
2023/11/18 08:24:36;;;;;;;8.60;7.30;;;;;;;5.08;100.00;100986.25;105635;1259;63112;-79
2023/11/18 08:27:06;;;;;;;9.30;7.50;;;;;;;5.08;100.00;100979.65;105714;1257;72652;-78
2023/11/18 08:29:33;;;;;;;7.60;6.50;;;;;;;5.05;100.00;100983.05;105471;1254;61851;-78
2023/11/18 08:32:01;;;;;;;9.10;5.60;;;;;;;5.01;100.00;100984.54;105700;1254;60189;-80
2023/11/18 08:34:29;;;;;;;7.40;6.30;;;;;;;4.96;100.00;100984.16;105734;1254;74296;-78
2023/11/18 08:36:57;;;;;;;5.80;5.00;;;;;;;4.94;100.00;100990.48;105748;1252;61531;-79
2023/11/18 08:39:25;;;;;;;7.80;5.20;;;;;;;4.90;100.00;100996.66;105723;1258;71753;-79
2023/11/18 08:41:53;;;;;;;6.40;4.80;;;;;;;4.86;100.00;101001.98;105676;1254;60048;-78
2023/11/18 08:44:22;;;;;;;6.00;4.80;;;;;;;4.82;100.00;101002.98;105484;1259;59733;-81
2023/11/18 08:46:52;;;;;;;5.40;4.20;;;;;;;4.77;100.00;101002.25;105790;1254;72985;-79
2023/11/18 08:49:22;;;;;;;5.40;4.60;;;;;;;4.75;100.00;101003.35;105970;1254;63508;-79
2023/11/18 08:51:55;;;;;;;8.10;5.30;;;;;;;4.71;100.00;100999.64;105845;1256;73028;-81
2023/11/18 08:54:36;;;;;;;7.20;5.60;;;;;;;4.66;100.00;101001.90;105711;1259;60851;-79
2023/11/18 08:57:19;;;;;;;7.00;4.70;;;;;;;4.59;100.00;100993.94;105744;1260;59648;-78
2023/11/18 08:59:47;;;;;;;9.50;6.00;;;;;;;4.52;100.00;100994.33;105802;1255;72558;-78
2023/11/18 09:02:15;;;;;;;8.80;6.00;;;;;;;4.47;100.00;100991.88;105740;1260;63731;-78
2023/11/18 09:04:46;;;;;;;9.00;6.60;;;;;;;4.43;100.00;100991.30;105661;1259;72655;-81
2023/11/18 09:07:19;;;;;;;9.30;6.40;;;;;;;4.37;100.00;100987.48;106007;1257;59692;-80
2023/11/18 09:09:51;;;;;;;9.30;6.30;;;;;;;4.38;100.00;100991.98;105890;1259;59801;-79
2023/11/18 09:12:20;;;;;;;8.90;6.50;;;;;;;4.39;100.00;100989.50;105835;1254;72168;-79
2023/11/18 09:14:51;;;;;;;9.50;7.10;;;;;;;4.40;100.00;100989.64;105705;1259;62512;-78
2023/11/18 09:17:22;;;;;;;8.70;7.40;;;;;;;4.37;100.00;100986.44;106154;1260;71442;-77
2023/11/18 09:19:52;;;;;;;11.60;7.80;;;;;;;4.36;100.00;100982.15;105971;1259;59655;-78
2023/11/18 09:22:21;;;;;;;10.80;8.30;;;;;;;4.35;100.00;100981.29;105871;1266;59993;-79
2023/11/18 09:24:52;;;;;;;11.20;8.60;;;;;;;4.34;100.00;100982.52;105857;1256;72033;-80
2023/11/18 09:27:20;;;;;;;10.30;8.00;;;;;;;4.32;100.00;100983.29;105822;1253;62248;-79
2023/11/18 09:29:49;;;;;;;11.30;8.40;;;;;;;4.30;100.00;100986.12;105831;1255;72402;-78
2023/11/18 09:32:18;;;;;;;9.30;7.30;;;;;;;4.28;100.00;100982.02;105518;1262;60916;-79
2023/11/18 09:34:48;;;;;;;8.60;7.70;;;;;;;4.30;100.00;100982.84;105946;1252;59816;-78
2023/11/18 09:37:16;;;;;;;8.90;6.80;;;;;;;4.29;100.00;100988.57;105748;1267;73134;-78
2023/11/18 09:39:52;;;;;;;11.50;7.10;;;;;;;4.27;100.00;100980.33;105981;1257;61593;-77
2023/11/18 09:42:24;;;;;;;11.00;7.20;;;;;;;4.28;100.00;100981.85;105917;1260;71782;-76
2023/11/18 09:44:55;;;;;;;12.80;6.80;;;;;;;4.32;100.00;100984.68;105836;1259;61003;-75
2023/11/18 09:47:24;;;;;;;10.70;7.80;;;;;;;4.37;100.00;100983.85;105708;1259;61251;-78
2023/11/18 09:49:53;;;;;;;12.80;7.50;;;;;;;4.41;100.00;100982.34;105783;1253;72575;-77
2023/11/18 09:52:31;;;;;;;10.90;7.00;;;;;;;4.47;100.00;100983.76;105808;1257;62381;-76
2023/11/18 09:55:04;;;;;;;13.30;7.80;;;;;;;4.50;100.00;100983.84;105667;1257;71471;-79
2023/11/18 09:57:39;;;;;;;12.10;7.10;;;;;;;4.50;100.00;100984.16;105867;1257;59679;-78
2023/11/18 10:00:26;;;;;;;10.60;6.80;;;;;;;4.49;100.00;100984.89;105862;1251;60170;-79
2023/11/18 10:03:00;;;;;;;11.80;7.00;;;;;;;4.49;100.00;100983.69;105949;1260;71556;-79
2023/11/18 10:05:30;;;;;;;;;;;;;;;4.48;100.00;100977.80;105934;1257;63687;-76
2023/11/18 10:07:58;;;;;;;11.40;7.70;;;;;;;4.45;100.00;100968.73;105890;1251;72476;-78
2023/11/18 10:10:30;;;;;;;14.40;7.80;;;;;;;4.43;100.00;100975.19;105768;1254;62101;-77
2023/11/18 10:12:58;;;;;;;10.60;7.80;;;;;;;4.44;100.00;100977.79;105791;1251;60118;-78
2023/11/18 10:15:26;;;;;;;9.80;7.70;;;;;;;4.45;100.00;100981.90;105835;1257;73151;-77
2023/11/18 10:18:06;;;;;;;10.60;7.30;;;;;;;4.45;100.00;100980.67;105854;1251;62270;-78
2023/11/18 10:20:41;;;;;;;10.50;7.80;;;;;;;4.44;100.00;100984.86;106069;1255;72694;-77
2023/11/18 10:23:12;;;;;;;9.90;7.70;;;;;;;4.42;100.00;100985.10;105892;1257;61739;-77
2023/11/18 10:25:52;;;;;;;11.20;7.80;;;;;;;4.41;100.00;100984.77;105889;1257;59615;-79
2023/11/18 10:28:27;;;;;;;9.70;7.50;;;;;;;4.40;100.00;100985.83;105731;1259;73094;-78
2023/11/18 10:30:57;;;;;;;9.50;7.30;;;;;;;4.40;100.00;100988.44;105894;1256;62441;-77
2023/11/18 10:33:30;;;;;;;8.30;6.20;;;;;;;4.37;100.00;100985.05;105842;1256;73084;-77
2023/11/18 10:36:03;;;;;;;9.50;7.40;;;;;;;4.37;100.00;100995.27;105901;1256;60912;-78
2023/11/18 10:38:43;;;;;;;10.10;7.70;;;;;;;4.37;100.00;100990.75;105839;1256;59643;-77
2023/11/18 10:41:12;;;;;;;10.50;8.80;;;;;;;4.38;100.00;100986.41;105771;1251;71783;-77
2023/11/18 10:43:41;;;;;;;10.70;8.10;;;;;;;4.40;100.00;100985.65;105658;1262;63714;-78
2023/11/18 10:46:13;;;;;;;12.20;7.70;;;;;;;4.44;100.00;100977.27;105805;1254;72678;-77
2023/11/18 10:48:47;;;;;;;10.90;8.50;;;;;;;4.44;100.00;100962.19;105784;1255;59662;-76
2023/11/18 10:51:26;;;;;;;8.00;6.10;;;;;;;4.43;100.00;100955.30;105803;1258;60827;-77
2023/11/18 10:54:04;;;;;;;9.60;7.50;;;;;;;4.43;100.00;100968.27;105616;1259;72980;-77
2023/11/18 10:56:32;;;;;;;11.20;8.10;;;;;;;4.39;100.00;100957.48;105758;1256;62327;-76
2023/11/18 10:59:07;;;;;;;13.30;8.20;;;;;;;4.35;100.00;100949.63;105837;1252;72553;-77
2023/11/18 11:01:42;;;;;;;11.80;8.70;;;;;;;4.35;100.00;100944.94;105902;1252;60945;-78
2023/11/18 11:04:11;;;;;;;11.50;7.60;;;;;;;4.36;100.00;100943.71;105760;1256;60038;-77
2023/11/18 11:06:46;;;;;;;12.40;8.10;;;;;;;4.36;100.00;100942.34;105732;1251;71864;-76
2023/11/18 11:09:20;;;;;;;12.80;7.50;;;;;;;4.34;100.00;100937.03;105831;1258;63603;-77
2023/11/18 11:11:54;;;;;;;12.60;7.60;;;;;;;4.30;100.00;100931.77;105917;1257;72010;-78
2023/11/18 11:14:35;;;;;;;10.50;7.00;;;;;;;4.28;100.00;100934.79;105810;1256;60931;-78
2023/11/18 11:17:15;;;;;;;12.00;7.90;;;;;;;4.28;100.00;100930.13;105972;1257;60443;-78
2023/11/18 11:19:57;;;;;;;11.70;7.30;;;;;;;4.29;100.00;100916.92;105959;1252;72651;-78
2023/11/18 11:22:30;;;;;;;9.70;6.80;;;;;;;4.31;100.00;100921.89;106320;1257;63584;-77
2023/11/18 11:25:21;;;;;;;7.20;6.20;;;;;;;4.32;100.00;100919.45;106011;1259;70467;-77
2023/11/18 11:28:03;;;;;;;7.60;6.30;;;;;;;4.33;100.00;100923.55;105749;1256;60803;-78
2023/11/18 11:30:44;;;;;;;6.90;6.20;;;;;;;4.37;100.00;100929.16;105825;1266;60447;-79
2023/11/18 11:33:40;;;;;;;8.90;6.80;;;;;;;4.35;100.00;100918.48;105742;1257;74509;-77
2023/11/18 11:36:12;;;;;;;9.30;7.50;;;;;;;4.33;100.00;100914.20;105813;1257;62246;-78
2023/11/18 11:38:39;;;;;;;11.00;7.60;;;;;;;4.32;100.00;100901.76;105769;1259;72936;-80